WetterOnline ( https://www.wetteronline.de )

Wetter aktuell Freiburg

Aktuelles Wetter: Freiburg/Flugplatz (236m)

6-stündlich | Neueste Meldungen
Ortszeit Temperatur Wetter
Do, 19.05. 14:00 29.6° C leicht bewölkt
Do, 19.05. 8:00 19.4° C wolkig
Do, 19.05. 2:00 21.9° C wolkig
Mi, 18.05. 20:00 26.4° C leicht bewölkt
Mi, 18.05. 14:00 27.9° C wolkenlos
Mi, 18.05. 8:00 18.3° C leicht bewölkt
Mi, 18.05. 2:00 16.2° C wolkenlos
Di, 17.05. 20:00 24.7° C leicht bewölkt
Ortszeit Temperatur Wetter
Do, 19.05. 17:30 28.5° C wolkig
Do, 19.05. 17:20 28.5° C wolkig
Do, 19.05. 17:10 29.2° C bedeckt
Do, 19.05. 17:00 29.6° C leicht bewölkt
Do, 19.05. 16:50 29.6° C wolkig
Do, 19.05. 16:40 29.8° C bedeckt
Do, 19.05. 16:30 29.4° C bewölkt
Do, 19.05. 16:00 29.1° C wolkig
Do, 19.05. 15:30 29.7° C wolkig
Do, 19.05. 15:00 30.0° C leicht bewölkt
Do, 19.05. 14:30 29.6° C leicht bewölkt
Ortszeit Relative Feuchte Sichtweite
Do, 19.05. 14:00 40% 35 km
Do, 19.05. 8:00 69% 45 km
Do, 19.05. 2:00 50% 55 km
Mi, 18.05. 20:00 47% 50 km
Mi, 18.05. 14:00 42% 40 km
Mi, 18.05. 8:00 66% 35 km
Mi, 18.05. 2:00 78% 40 km
Di, 17.05. 20:00 46% 50 km
Ortszeit Relative Feuchte Sichtweite
Do, 19.05. 17:30 39% 35 km
Do, 19.05. 17:20 39% -
Do, 19.05. 17:10 39% -
Do, 19.05. 17:00 36% 30 km
Do, 19.05. 16:50 36% -
Do, 19.05. 16:40 38% -
Do, 19.05. 16:30 37% 25 km
Do, 19.05. 16:00 37% 60 km
Do, 19.05. 15:30 36% 24 km
Do, 19.05. 15:00 39% 55 km
Do, 19.05. 14:30 41% 45 km
Ortszeit Niederschlagsmenge Niederschlagsart
Do, 19.05. 14:00 0.1 l/m2 in 6 Std. Niederschlag
Do, 19.05. 8:00 0.0 l/m2 in 12 Std. -
Do, 19.05. 2:00 0.0 l/m2 in 6 Std. -
Mi, 18.05. 20:00 0.0 l/m2 in 12 Std. -
Mi, 18.05. 14:00 0.1 l/m2 in 6 Std. -
Mi, 18.05. 8:00 0.0 l/m2 in 12 Std. -
Mi, 18.05. 2:00 0.0 l/m2 in 6 Std. -
Di, 17.05. 20:00 0.0 l/m2 in 12 Std. -
Ortszeit Niederschlagsmenge Niederschlagsart
Do, 19.05. 17:30 0.0 l/m2 in 1 Std. -
Do, 19.05. 17:20 keine Meldung -
Do, 19.05. 17:10 keine Meldung -
Do, 19.05. 17:00 0.0 l/m2 in 1 Std. -
Do, 19.05. 16:50 keine Meldung -
Do, 19.05. 16:40 keine Meldung -
Do, 19.05. 16:30 0.0 l/m2 in 1 Std. -
Do, 19.05. 16:00 0.0 l/m2 in 1 Std. -
Do, 19.05. 15:30 0.0 l/m2 in 1 Std. -
Do, 19.05. 15:00 0.0 l/m2 in 1 Std. -
Do, 19.05. 14:30 0.0 l/m2 in 1 Std. -
Ortszeit Stärke Spitze Richtung
km/h Bft. km/h Grad Sektor
Do, 19.05. 14:00 18 3 40 240° SW
Do, 19.05. 8:00 4 1 22 220° SW
Do, 19.05. 2:00 13 3 41 170° S
Mi, 18.05. 20:00 13 3 26 340° N
Mi, 18.05. 14:00 7 2 18 310° NW
Mi, 18.05. 8:00 4 1 11 260° W
Mi, 18.05. 2:00 4 1 14 320° NW
Di, 17.05. 20:00 9 2 22 340° N
Ortszeit Stärke Spitze Richtung
km/h Bft. km/h Grad Sektor
Do, 19.05. 17:30 25 4 36 210° SW
Do, 19.05. 17:20 25 4 - 210° SW
Do, 19.05. 17:10 25 4 - 220° SW
Do, 19.05. 17:00 22 4 40 210° SW
Do, 19.05. 16:50 22 4 - 210° SW
Do, 19.05. 16:40 22 4 - 210° SW
Do, 19.05. 16:30 20 4 35 220° SW
Do, 19.05. 16:00 28 4 46 230° SW
Do, 19.05. 15:30 25 4 47 220° SW
Do, 19.05. 15:00 22 4 32 210° SW
Do, 19.05. 14:30 18 3 32 230° SW
Ortszeit Untergrenze Bedeckung Gattung
total tief tief mittel hoch
Do, 19.05. 14:00 10500 m 4/8 0/8 - - -
Do, 19.05. 8:00 7800 m 8/8 0/8 - - -
Do, 19.05. 2:00 9000 m 8/8 0/8 - - -
Mi, 18.05. 20:00 10500 m 8/8 0/8 - - -
Mi, 18.05. 14:00 - 0/8 0/8 - - -
Mi, 18.05. 8:00 10500 m 7/8 0/8 - - -
Mi, 18.05. 2:00 - 0/8 0/8 - - -
Di, 17.05. 20:00 10500 m 8/8 0/8 - - -
Ortszeit Bedeckungsgrad in Achtel und Wolkenuntergrenze
Do, 19.05. 17:30 2(3600m) 8(7800m) 8(8400m)
Do, 19.05. 17:20 2(3600m) 8(7800m) 8(8400m)
Do, 19.05. 17:10 8
Do, 19.05. 17:00 5(7500m) 8(8100m)
Do, 19.05. 16:50 5(7500m) 8(8100m)
Do, 19.05. 16:40 8
Do, 19.05. 16:30 4(4500m) 6(5700m) 8(7500m)
Do, 19.05. 16:00 7(4800m) 7(5700m) 8(8400m)
Do, 19.05. 15:30 1(4800m) 7(9000m) 7(9000m)
Do, 19.05. 15:00 1(2100m) 5(9000m) 6(10500m)
Do, 19.05. 14:30 3(9000m)
Ortszeit Luftdruck NN (hPa) Tendenz (hPa in 3 Std.)
Do, 19.05. 14:00 1019 - 1,0
Do, 19.05. 8:00 1021 + 1,0
Do, 19.05. 2:00 1019 + 0,2
Mi, 18.05. 20:00 1018 - 0,5
Mi, 18.05. 14:00 1020 - 1,7
Mi, 18.05. 8:00 1022 + 1,2
Mi, 18.05. 2:00 1020 + 0,3
Di, 17.05. 20:00 1018 - 0,2
Ortszeit Luftdruck NN (hPa) Tendenz (hPa in 3 Std.)
Do, 19.05. 17:30 1019 - 0,3
Do, 19.05. 17:20 1019 keine Meldung
Do, 19.05. 17:10 1019 keine Meldung
Do, 19.05. 17:00 1019 - 0,6
Do, 19.05. 16:50 1019 keine Meldung
Do, 19.05. 16:40 1019 keine Meldung
Do, 19.05. 16:30 1019 - 0,6
Do, 19.05. 16:00 1020 0,0
Do, 19.05. 15:30 1020 - 0,2
Do, 19.05. 15:00 1019 - 0,9
Do, 19.05. 14:30 1019 - 0,9
Ortszeit Schneehöhe (cm)
Do, 19.05. 14:00 0
Do, 19.05. 8:00 0
Do, 19.05. 2:00 0
Mi, 18.05. 20:00 0
Mi, 18.05. 14:00 0
Mi, 18.05. 8:00 0
Mi, 18.05. 2:00 0
Di, 17.05. 20:00 0
Ortszeit Schneehöhe (cm)
Do, 19.05. 17:30 0
Do, 19.05. 17:20 0
Do, 19.05. 17:10 0
Do, 19.05. 17:00 0
Do, 19.05. 16:50 0
Do, 19.05. 16:40 0
Do, 19.05. 16:30 0
Do, 19.05. 16:00 0
Do, 19.05. 15:30 0
Do, 19.05. 15:00 0
Do, 19.05. 14:30 0
Link zu dieser Seite / Seite empfehlen

Das Wetter in ...